createdAt,value
2023-01-23T00:00:04.524Z,95.00
2023-01-23T00:01:04.512Z,95.32
2023-01-23T00:02:04.813Z,95.42
2023-01-23T00:03:04.489Z,95.53
2023-01-23T00:04:04.570Z,95.64
2023-01-23T00:05:04.468Z,95.53
2023-01-23T00:06:04.459Z,95.64
2023-01-23T00:07:04.442Z,95.64
2023-01-23T00:08:04.577Z,95.64
2023-01-23T00:09:04.411Z,95.64
2023-01-23T00:10:04.394Z,95.53
2023-01-23T00:11:04.384Z,95.53
2023-01-23T00:12:04.410Z,95.64
2023-01-23T00:13:04.358Z,95.42
2023-01-23T00:14:04.361Z,95.42
2023-01-23T00:15:06.597Z,95.42
2023-01-23T00:16:04.371Z,95.42
2023-01-23T00:17:04.511Z,95.42
2023-01-23T00:18:04.302Z,95.42
2023-01-23T00:19:04.295Z,95.42
2023-01-23T00:20:04.483Z,95.32
2023-01-23T00:21:04.261Z,95.32
2023-01-23T00:22:04.256Z,95.42
2023-01-23T00:23:04.226Z,95.53
2023-01-23T00:24:04.457Z,95.53
2023-01-23T00:25:04.210Z,95.53
2023-01-23T00:26:04.203Z,95.42
2023-01-23T00:27:04.209Z,95.10
2023-01-23T00:28:04.160Z,95.00
2023-01-23T00:29:04.156Z,94.90
2023-01-23T00:30:04.149Z,94.79
2023-01-23T00:31:04.290Z,94.69
2023-01-23T00:32:04.134Z,94.58
2023-01-23T00:33:04.097Z,94.48
2023-01-23T00:34:04.079Z,94.58
2023-01-23T00:35:04.273Z,94.69
2023-01-23T00:36:04.066Z,94.90
2023-01-23T00:37:04.052Z,94.79
2023-01-23T00:38:04.068Z,94.79
2023-01-23T00:39:04.019Z,94.79
2023-01-23T00:40:04.122Z,94.79
2023-01-23T00:41:03.992Z,94.90
2023-01-23T00:42:03.979Z,95.10
2023-01-23T00:43:03.979Z,95.10
2023-01-23T00:44:03.951Z,95.00
2023-01-23T00:45:03.939Z,95.00
2023-01-23T00:46:03.957Z,95.00
2023-01-23T00:47:04.115Z,95.00
2023-01-23T00:48:03.898Z,95.00
2023-01-23T00:49:03.922Z,94.90
2023-01-23T00:50:03.880Z,94.90
2023-01-23T00:51:03.929Z,94.85
2023-01-23T00:52:03.859Z,94.85
2023-01-23T00:53:04.040Z,94.96
2023-01-23T00:54:04.225Z,94.96
2023-01-23T00:55:03.822Z,94.69
2023-01-23T00:56:03.918Z,94.33
2023-01-23T00:57:03.790Z,94.33
2023-01-23T00:58:03.790Z,94.43
2023-01-23T00:59:03.763Z,94.54
2023-01-23T01:00:03.745Z,94.65
2023-01-23T01:01:03.737Z,94.65
2023-01-23T01:02:03.791Z,94.75
2023-01-23T01:03:03.755Z,94.85
2023-01-23T01:04:03.698Z,94.75
2023-01-23T01:05:03.702Z,94.75
2023-01-23T01:06:03.695Z,94.75
2023-01-23T01:07:03.659Z,94.65
2023-01-23T01:08:03.647Z,94.65
2023-01-23T01:09:03.631Z,94.65
2023-01-23T01:10:03.618Z,94.75
2023-01-23T01:11:03.615Z,94.65
2023-01-23T01:12:03.708Z,94.65
2023-01-23T01:13:03.575Z,94.54
2023-01-23T01:14:03.564Z,94.54
2023-01-23T01:15:03.545Z,94.54
2023-01-23T01:16:03.565Z,94.54
2023-01-23T01:17:03.529Z,94.65
2023-01-23T01:18:03.932Z,94.54
2023-01-23T01:19:03.493Z,94.43
2023-01-23T01:20:03.486Z,94.54
2023-01-23T01:21:03.479Z,94.75
2023-01-23T01:22:03.466Z,94.96
2023-01-23T01:23:03.449Z,95.17
2023-01-23T01:24:04.032Z,95.17
2023-01-23T01:25:03.422Z,95.06
2023-01-23T01:26:03.402Z,95.06
2023-01-23T01:27:03.437Z,94.96
2023-01-23T01:28:03.517Z,94.75
2023-01-23T01:29:03.362Z,94.54
2023-01-23T01:30:03.359Z,94.65
2023-01-23T01:31:03.476Z,94.75
2023-01-23T01:32:03.329Z,94.54
2023-01-23T01:33:03.314Z,94.43
2023-01-23T01:34:03.499Z,94.23
2023-01-23T01:35:03.294Z,94.33
2023-01-23T01:36:03.275Z,94.33
2023-01-23T01:37:03.263Z,94.23
2023-01-23T01:38:03.254Z,94.23
2023-01-23T01:39:03.430Z,94.12
2023-01-23T01:40:03.247Z,93.91
2023-01-23T01:41:03.200Z,94.01
2023-01-23T01:42:03.191Z,94.23
2023-01-23T01:43:03.197Z,94.43
2023-01-23T01:44:03.291Z,94.54
2023-01-23T01:45:03.164Z,94.43
2023-01-23T01:46:03.152Z,94.33
2023-01-23T01:47:03.156Z,94.23
2023-01-23T01:48:03.164Z,93.91
2023-01-23T01:49:03.098Z,93.91
2023-01-23T01:50:03.096Z,94.01
2023-01-23T01:51:03.105Z,94.12
2023-01-23T01:52:03.075Z,93.91
2023-01-23T01:53:03.054Z,93.70
2023-01-23T01:54:03.289Z,93.70
2023-01-23T01:55:03.028Z,93.91
2023-01-23T01:56:03.009Z,94.01
2023-01-23T01:57:03.194Z,94.12
2023-01-23T01:58:02.999Z,94.01
2023-01-23T01:59:02.969Z,93.80
2023-01-23T02:00:03.098Z,93.70
2023-01-23T02:01:03.010Z,93.55
2023-01-23T02:02:02.968Z,93.80
2023-01-23T02:03:02.923Z,93.70
2023-01-23T02:04:02.913Z,93.49
2023-01-23T02:05:02.896Z,93.38
2023-01-23T02:06:02.879Z,93.59
2023-01-23T02:07:02.863Z,93.70
2023-01-23T02:08:02.850Z,93.80
2023-01-23T02:09:02.839Z,94.01
2023-01-23T02:10:02.826Z,93.59
2023-01-23T02:11:02.826Z,93.70
2023-01-23T02:12:02.812Z,93.80
2023-01-23T02:13:02.786Z,93.59
2023-01-23T02:14:02.970Z,93.28
2023-01-23T02:15:02.768Z,93.70
2023-01-23T02:16:02.928Z,93.49
2023-01-23T02:17:02.744Z,93.80
2023-01-23T02:18:02.716Z,93.59
2023-01-23T02:19:02.721Z,93.07
2023-01-23T02:20:02.896Z,93.07
2023-01-23T02:21:02.728Z,93.18
2023-01-23T02:22:02.703Z,92.86
2023-01-23T02:23:02.671Z,92.86
2023-01-23T02:24:02.656Z,93.07
2023-01-23T02:25:02.624Z,92.86
2023-01-23T02:26:02.683Z,92.86
2023-01-23T02:27:02.599Z,92.76
2023-01-23T02:28:02.593Z,92.86
2023-01-23T02:29:02.613Z,93.28
2023-01-23T02:30:02.579Z,93.59
2023-01-23T02:31:02.644Z,93.70
2023-01-23T02:32:02.779Z,93.80
2023-01-23T02:33:02.518Z,93.80
2023-01-23T02:34:02.525Z,93.49
2023-01-23T02:35:02.499Z,93.28
2023-01-23T02:36:02.502Z,93.07
2023-01-23T02:37:02.714Z,92.54
2023-01-23T02:38:02.467Z,92.54
2023-01-23T02:39:02.465Z,92.44
2023-01-23T02:40:02.434Z,92.54
2023-01-23T02:41:02.414Z,92.86
2023-01-23T02:42:02.639Z,92.76
2023-01-23T02:43:02.397Z,92.44
2023-01-23T02:44:02.587Z,92.76
2023-01-23T02:45:02.367Z,93.07
2023-01-23T02:46:02.624Z,93.07
2023-01-23T02:47:02.355Z,93.18
2023-01-23T02:48:02.442Z,93.18
2023-01-23T02:49:02.318Z,93.28
2023-01-23T02:50:02.310Z,93.28
2023-01-23T02:51:02.343Z,93.38
2023-01-23T02:52:02.271Z,93.28
2023-01-23T02:53:02.280Z,93.28
2023-01-23T02:54:02.242Z,92.54
2023-01-23T02:55:02.242Z,92.76
2023-01-23T02:56:02.228Z,92.44
2023-01-23T02:57:02.212Z,92.06
2023-01-23T02:58:02.223Z,92.02
2023-01-23T02:59:02.228Z,92.23
2023-01-23T03:00:02.367Z,92.33
2023-01-23T03:01:02.165Z,92.33
2023-01-23T03:02:02.260Z,92.12
2023-01-23T03:03:02.132Z,92.38
2023-01-23T03:04:02.230Z,92.33
2023-01-23T03:05:02.109Z,92.02
2023-01-23T03:06:02.094Z,91.71
2023-01-23T03:07:02.278Z,91.64
2023-01-23T03:08:02.076Z,91.96
2023-01-23T03:09:02.253Z,91.85
2023-01-23T03:10:02.043Z,91.85
2023-01-23T03:11:02.021Z,91.85
2023-01-23T03:12:02.038Z,91.74
2023-01-23T03:13:02.034Z,91.49
2023-01-23T03:14:01.984Z,91.07
2023-01-23T03:15:01.969Z,90.69
2023-01-23T03:16:02.020Z,90.80
2023-01-23T03:17:01.947Z,90.91
2023-01-23T03:18:02.141Z,90.59
2023-01-23T03:19:01.920Z,90.69
2023-01-23T03:20:02.037Z,90.91
2023-01-23T03:21:01.895Z,90.80
2023-01-23T03:22:01.889Z,90.48
2023-01-23T03:23:01.864Z,89.64
2023-01-23T03:24:01.852Z,88.91
2023-01-23T03:25:01.844Z,88.28
2023-01-23T03:26:02.026Z,87.44
2023-01-23T03:27:01.840Z,87.44
2023-01-23T03:28:01.825Z,86.95
2023-01-23T03:29:01.799Z,86.70
2023-01-23T03:30:01.803Z,86.49
2023-01-23T03:31:01.777Z,87.23
2023-01-23T03:32:01.947Z,87.48
2023-01-23T03:33:01.742Z,87.75
2023-01-23T03:34:01.727Z,87.85
2023-01-23T03:35:01.717Z,88.17
2023-01-23T03:36:01.823Z,88.28
2023-01-23T03:37:01.695Z,88.17
2023-01-23T03:38:01.673Z,87.12
2023-01-23T03:39:01.669Z,86.91
2023-01-23T03:40:01.659Z,87.23
2023-01-23T03:41:01.677Z,86.70
2023-01-23T03:42:01.616Z,86.70
2023-01-23T03:43:01.612Z,86.80
2023-01-23T03:44:01.590Z,86.70
2023-01-23T03:45:01.584Z,86.28
2023-01-23T03:46:01.594Z,86.70
2023-01-23T03:47:01.565Z,87.33
2023-01-23T03:48:01.587Z,87.23
2023-01-23T03:49:01.540Z,87.12
2023-01-23T03:50:01.513Z,86.91
2023-01-23T03:51:01.585Z,86.28
2023-01-23T03:52:01.652Z,86.28
2023-01-23T03:53:01.507Z,86.18
2023-01-23T03:54:01.474Z,86.38
2023-01-23T03:55:01.457Z,86.18
2023-01-23T03:56:01.441Z,86.18
2023-01-23T03:57:01.444Z,86.49
2023-01-23T03:58:01.418Z,86.18
2023-01-23T03:59:01.404Z,86.07
2023-01-23T04:00:01.381Z,86.18
2023-01-23T04:01:01.386Z,85.69
2023-01-23T04:02:01.383Z,85.75
2023-01-23T04:03:01.388Z,86.38
2023-01-23T04:04:01.339Z,86.80
2023-01-23T04:05:01.332Z,86.49
2023-01-23T04:06:01.311Z,86.70
2023-01-23T04:07:01.293Z,86.21
2023-01-23T04:08:01.414Z,85.69
2023-01-23T04:09:01.286Z,85.79
2023-01-23T04:10:01.250Z,85.79
2023-01-23T04:11:01.239Z,86.11
2023-01-23T04:12:01.235Z,86.74
2023-01-23T04:13:01.222Z,87.05
2023-01-23T04:14:01.203Z,87.12
2023-01-23T04:15:01.188Z,86.49
2023-01-23T04:16:01.187Z,85.65
2023-01-23T04:17:01.175Z,85.02
2023-01-23T04:18:01.157Z,85.33
2023-01-23T04:19:01.152Z,86.07
2023-01-23T04:20:01.128Z,85.44
2023-01-23T04:21:01.110Z,85.33
2023-01-23T04:22:01.110Z,85.23
2023-01-23T04:23:01.087Z,85.96
2023-01-23T04:24:01.186Z,86.60
2023-01-23T04:25:01.060Z,86.49
2023-01-23T04:26:01.043Z,86.49
2023-01-23T04:27:01.038Z,85.75
2023-01-23T04:28:01.014Z,85.86
2023-01-23T04:29:01.001Z,85.96
2023-01-23T04:30:01.206Z,86.07
2023-01-23T04:31:01.669Z,86.49
2023-01-23T04:32:00.971Z,87.02
2023-01-23T04:33:00.962Z,87.33
2023-01-23T04:34:00.941Z,87.33
2023-01-23T04:35:00.932Z,87.44
2023-01-23T04:36:01.121Z,87.85
2023-01-23T04:37:00.924Z,87.44
2023-01-23T04:38:00.894Z,86.91
2023-01-23T04:39:00.920Z,87.12
2023-01-23T04:40:01.003Z,87.23
2023-01-23T04:41:00.883Z,87.23
2023-01-23T04:42:00.833Z,87.44
2023-01-23T04:43:00.820Z,87.12
2023-01-23T04:44:01.012Z,87.23
2023-01-23T04:45:00.811Z,86.49
2023-01-23T04:46:00.834Z,86.60
2023-01-23T04:47:00.782Z,87.02
2023-01-23T04:48:00.764Z,86.91
2023-01-23T04:49:00.749Z,87.12
2023-01-23T04:50:00.734Z,87.12
2023-01-23T04:51:00.799Z,87.12
2023-01-23T04:52:00.733Z,87.02
2023-01-23T04:53:00.703Z,86.49
2023-01-23T04:54:00.692Z,86.60
2023-01-23T04:55:00.677Z,86.91
2023-01-23T04:56:00.771Z,87.02
2023-01-23T04:57:06.641Z,87.12
2023-01-23T04:58:00.643Z,87.02
2023-01-23T04:59:00.620Z,87.33
2023-01-23T05:00:00.886Z,87.02
2023-01-23T05:01:00.653Z,87.02
2023-01-23T05:02:00.581Z,87.44
2023-01-23T05:03:00.558Z,87.75
2023-01-23T05:04:00.567Z,87.85
2023-01-23T05:05:00.542Z,87.65
2023-01-23T05:06:00.528Z,87.96
2023-01-23T05:07:00.515Z,87.75
2023-01-23T05:08:00.535Z,87.44
2023-01-23T05:09:00.479Z,87.96
2023-01-23T05:10:00.471Z,87.85
2023-01-23T05:11:00.451Z,87.96
2023-01-23T05:12:00.765Z,88.28
2023-01-23T05:13:00.633Z,88.17
2023-01-23T05:14:00.422Z,88.17
2023-01-23T05:15:00.406Z,88.49
2023-01-23T05:16:00.478Z,88.80
2023-01-23T05:17:01.189Z,88.70
2023-01-23T05:18:00.368Z,88.95
2023-01-23T05:19:00.355Z,89.32
2023-01-23T05:20:00.340Z,89.69
2023-01-23T05:21:00.333Z,89.79
2023-01-23T05:22:00.308Z,90.00
2023-01-23T05:23:00.310Z,90.31
2023-01-23T05:24:00.286Z,90.53
2023-01-23T05:25:00.289Z,90.63
2023-01-23T05:26:00.273Z,90.73
2023-01-23T05:27:00.251Z,91.05
2023-01-23T05:28:00.558Z,91.26
2023-01-23T05:29:00.227Z,91.16
2023-01-23T05:30:00.229Z,91.26
2023-01-23T05:31:00.334Z,91.58
2023-01-23T05:32:00.200Z,91.68
2023-01-23T05:33:00.168Z,91.89
2023-01-23T05:34:00.159Z,91.78
2023-01-23T05:35:00.140Z,91.58
2023-01-23T05:36:06.130Z,91.47
2023-01-23T05:37:00.118Z,91.36
2023-01-23T05:38:00.127Z,91.05
2023-01-23T05:39:00.124Z,90.84
2023-01-23T05:40:00.122Z,90.53
2023-01-23T05:41:00.091Z,90.80
2023-01-23T05:42:00.067Z,90.84
2023-01-23T05:43:00.042Z,90.94
2023-01-23T05:44:00.141Z,90.53
2023-01-23T05:45:00.009Z,90.11
2023-01-23T05:46:00.036Z,90.00
2023-01-23T05:47:00.008Z,90.11
2023-01-23T05:47:59.981Z,90.11
2023-01-23T05:48:59.975Z,90.21
2023-01-23T05:49:59.954Z,90.31
2023-01-23T05:50:59.953Z,90.21
2023-01-23T05:51:59.929Z,90.00
2023-01-23T05:52:59.915Z,89.47
2023-01-23T05:53:59.890Z,89.58
2023-01-23T05:54:59.880Z,89.79
2023-01-23T05:55:59.874Z,89.89
2023-01-23T05:56:59.858Z,89.79
2023-01-23T05:57:59.855Z,89.58
2023-01-23T05:58:59.829Z,89.58
2023-01-23T05:59:59.944Z,89.58
2023-01-23T06:00:59.809Z,89.89
2023-01-23T06:01:59.793Z,90.06
2023-01-23T06:02:59.795Z,89.54
2023-01-23T06:03:59.845Z,89.12
2023-01-23T06:04:59.747Z,89.43
2023-01-23T06:05:59.736Z,89.75
2023-01-23T06:06:59.920Z,89.64
2023-01-23T06:07:59.709Z,89.64
2023-01-23T06:08:59.701Z,89.54
2023-01-23T06:09:59.704Z,89.54
2023-01-23T06:10:59.748Z,89.43
2023-01-23T06:11:59.657Z,89.96
2023-01-23T06:12:59.649Z,89.32
2023-01-23T06:13:59.648Z,89.22
2023-01-23T06:14:59.624Z,89.16
2023-01-23T06:15:59.837Z,89.37
2023-01-23T06:16:59.593Z,89.69
2023-01-23T06:17:59.644Z,89.89
2023-01-23T06:18:59.562Z,90.21
2023-01-23T06:19:59.557Z,89.86
2023-01-23T06:20:59.573Z,89.58
2023-01-23T06:21:59.537Z,89.69
2023-01-23T06:22:59.521Z,89.96
2023-01-23T06:23:59.503Z,89.89
2023-01-23T06:24:59.508Z,90.00
2023-01-23T06:25:59.481Z,90.11
2023-01-23T06:26:59.459Z,89.89
2023-01-23T06:27:59.454Z,89.79
2023-01-23T06:28:59.432Z,89.69
2023-01-23T06:29:59.419Z,89.69
2023-01-23T06:30:59.524Z,89.47
2023-01-23T06:31:59.526Z,89.69
2023-01-23T06:32:59.400Z,89.69
2023-01-23T06:33:59.389Z,89.69
2023-01-23T06:34:59.359Z,90.00
2023-01-23T06:35:59.346Z,90.31
2023-01-23T06:36:59.347Z,89.89
2023-01-23T06:37:59.318Z,90.00
2023-01-23T06:38:59.315Z,90.31
2023-01-23T06:39:59.287Z,90.53
2023-01-23T06:40:59.275Z,90.53
2023-01-23T06:41:59.280Z,90.31
2023-01-23T06:42:59.256Z,90.42
2023-01-23T06:43:59.239Z,90.42
2023-01-23T06:44:59.233Z,90.21
2023-01-23T06:45:59.409Z,90.21
2023-01-23T06:46:59.206Z,90.11
2023-01-23T06:47:59.298Z,90.11
2023-01-23T06:48:59.380Z,90.11
2023-01-23T06:49:59.194Z,90.11
2023-01-23T06:50:59.222Z,90.21
2023-01-23T06:51:59.138Z,90.31
2023-01-23T06:52:59.123Z,90.11
2023-01-23T06:53:59.107Z,89.79
2023-01-23T06:54:59.103Z,90.00
2023-01-23T06:55:59.080Z,90.53
2023-01-23T06:56:59.116Z,90.84
2023-01-23T06:57:59.065Z,90.73
2023-01-23T06:58:59.036Z,90.63
2023-01-23T06:59:59.034Z,90.21
2023-01-23T07:00:59.022Z,90.11
2023-01-23T07:01:59.078Z,89.89
2023-01-23T07:02:59.100Z,90.00
2023-01-23T07:03:59.103Z,90.42
2023-01-23T07:04:58.974Z,90.73
2023-01-23T07:05:58.945Z,90.42
2023-01-23T07:08:22.553Z,90.46
2023-01-23T07:10:05.303Z,90.73
2023-01-23T07:11:05.298Z,90.53
2023-01-23T07:12:05.276Z,90.31
2023-01-23T07:13:05.268Z,90.00
2023-01-23T07:14:05.459Z,90.00
2023-01-23T07:15:05.244Z,90.00
2023-01-23T07:16:05.257Z,89.89
2023-01-23T07:17:05.207Z,90.11
2023-01-23T07:18:05.201Z,90.31
2023-01-23T07:19:05.539Z,90.63
2023-01-23T07:20:05.207Z,90.73
2023-01-23T07:21:05.199Z,90.84
2023-01-23T07:22:05.139Z,90.80
2023-01-23T07:23:05.130Z,90.31
2023-01-23T07:24:05.124Z,90.21
2023-01-23T07:25:05.133Z,90.31
2023-01-23T07:26:05.100Z,90.53
2023-01-23T07:27:05.084Z,90.63
2023-01-23T07:28:05.075Z,90.11
2023-01-23T07:29:05.066Z,90.11
2023-01-23T07:30:05.043Z,90.21
2023-01-23T07:31:05.217Z,90.31
2023-01-23T07:32:05.018Z,90.63
2023-01-23T07:33:05.003Z,91.05
2023-01-23T07:34:04.989Z,90.94
2023-01-23T07:35:05.140Z,90.11
2023-01-23T07:36:04.962Z,89.89
2023-01-23T07:37:04.958Z,90.11
2023-01-23T07:38:05.002Z,89.54
2023-01-23T07:39:04.921Z,89.32
2023-01-23T07:40:04.917Z,89.32
2023-01-23T07:41:04.905Z,89.43
2023-01-23T07:42:04.883Z,89.22
2023-01-23T07:43:04.878Z,89.69
2023-01-23T07:44:04.858Z,89.79
2023-01-23T07:45:04.855Z,89.86
2023-01-23T07:46:04.835Z,89.64
2023-01-23T07:47:04.881Z,89.96
2023-01-23T07:48:04.813Z,89.96
2023-01-23T07:49:10.795Z,89.96
2023-01-23T07:50:05.790Z,89.96
2023-01-23T07:51:04.905Z,90.21
2023-01-23T07:52:10.762Z,90.53
2023-01-23T07:53:04.748Z,91.05
2023-01-23T07:54:04.937Z,91.33
2023-01-23T07:55:04.719Z,91.05
2023-01-23T07:56:04.737Z,90.94
2023-01-23T07:57:04.702Z,90.73
2023-01-23T07:58:04.679Z,90.73
2023-01-23T07:59:04.698Z,90.63
2023-01-23T08:00:04.663Z,90.94
2023-01-23T08:01:04.714Z,91.22
2023-01-23T08:02:04.627Z,90.91
2023-01-23T08:03:04.814Z,90.69
2023-01-23T08:04:04.842Z,90.91
2023-01-23T08:05:04.590Z,91.22
2023-01-23T08:06:04.582Z,91.22
2023-01-23T08:07:04.687Z,91.22
2023-01-23T08:08:13.089Z,91.33
2023-01-23T08:09:05.563Z,91.22
2023-01-23T08:10:04.520Z,91.01
2023-01-23T08:11:04.511Z,91.33
2023-01-23T08:12:04.518Z,91.22
2023-01-23T08:13:04.522Z,91.22
2023-01-23T08:14:04.544Z,91.33
2023-01-23T08:15:04.454Z,91.01
2023-01-23T08:16:04.486Z,91.01
2023-01-23T08:17:04.434Z,91.01
2023-01-23T08:18:04.432Z,91.36
2023-01-23T08:19:04.403Z,91.43
2023-01-23T08:20:04.408Z,91.33
2023-01-23T08:21:04.373Z,91.64
2023-01-23T08:22:04.359Z,91.53
2023-01-23T08:23:04.477Z,91.43
2023-01-23T08:24:04.339Z,91.74
2023-01-23T08:25:04.333Z,92.06
2023-01-23T08:26:04.312Z,91.96
2023-01-23T08:27:04.296Z,91.64
2023-01-23T08:28:04.330Z,91.43
2023-01-23T08:29:04.279Z,91.33
2023-01-23T08:30:04.277Z,91.43
2023-01-23T08:31:06.470Z,91.53
2023-01-23T08:32:04.266Z,91.43
2023-01-23T08:33:04.257Z,91.11
2023-01-23T08:34:04.214Z,91.01
2023-01-23T08:35:04.199Z,90.91
2023-01-23T08:36:04.193Z,91.11
2023-01-23T08:37:04.171Z,91.22
2023-01-23T08:38:04.161Z,91.22
2023-01-23T08:39:04.256Z,90.91
2023-01-23T08:40:04.127Z,90.76
2023-01-23T08:41:04.744Z,90.66
2023-01-23T08:42:04.100Z,90.86
2023-01-23T08:43:04.089Z,90.97
2023-01-23T08:44:04.515Z,90.97
2023-01-23T08:45:04.075Z,91.07
2023-01-23T08:46:04.112Z,90.66
2023-01-23T08:47:04.040Z,90.34
2023-01-23T08:48:04.015Z,90.12
2023-01-23T08:49:04.246Z,89.81
2023-01-23T08:50:04.004Z,89.77
2023-01-23T08:51:04.051Z,89.77
2023-01-23T08:52:03.980Z,89.25
2023-01-23T08:53:03.957Z,89.25
2023-01-23T08:54:03.949Z,89.35
2023-01-23T08:55:04.063Z,89.46
2023-01-23T08:56:03.914Z,88.72
2023-01-23T08:57:03.914Z,88.68
2023-01-23T08:58:03.895Z,88.57
2023-01-23T08:59:03.893Z,87.84
2023-01-23T09:00:03.872Z,87.84
2023-01-23T09:01:03.958Z,88.16
2023-01-23T09:02:03.875Z,88.68
2023-01-23T09:03:03.821Z,88.05
2023-01-23T09:04:03.809Z,88.05
2023-01-23T09:05:03.801Z,88.37
2023-01-23T09:06:03.784Z,88.37
2023-01-23T09:07:03.788Z,88.47
2023-01-23T09:08:04.564Z,88.26
2023-01-23T09:09:03.752Z,88.47
2023-01-23T09:10:03.729Z,88.37
2023-01-23T09:11:03.849Z,88.26
2023-01-23T09:12:03.716Z,88.26
2023-01-23T09:13:03.707Z,88.37
2023-01-23T09:14:03.686Z,88.12
2023-01-23T09:15:03.872Z,88.05
2023-01-23T09:16:03.761Z,88.37
2023-01-23T09:17:03.649Z,88.26
2023-01-23T09:18:03.632Z,88.37
2023-01-23T09:19:03.626Z,88.57
2023-01-23T09:20:03.609Z,88.57
2023-01-23T09:21:03.596Z,88.47
2023-01-23T09:22:03.788Z,88.22
2023-01-23T09:23:03.572Z,88.22
2023-01-23T09:24:03.553Z,88.32
2023-01-23T09:25:03.563Z,88.32
2023-01-23T09:26:03.525Z,88.22
2023-01-23T09:27:03.651Z,88.32
2023-01-23T09:28:03.508Z,88.32
2023-01-23T09:29:03.487Z,88.22
2023-01-23T09:30:03.473Z,87.91
2023-01-23T09:31:03.522Z,87.91
2023-01-23T09:32:03.519Z,88.22
2023-01-23T09:33:03.430Z,88.43
2023-01-23T09:34:03.432Z,88.32
2023-01-23T09:35:03.416Z,87.70
2023-01-23T09:36:03.401Z,88.05
2023-01-23T09:37:03.384Z,88.57
2023-01-23T09:38:03.366Z,89.00
2023-01-23T09:39:03.364Z,88.89
2023-01-23T09:40:03.347Z,88.89
2023-01-23T09:41:03.336Z,88.89
2023-01-23T09:42:03.313Z,89.00
2023-01-23T09:43:03.438Z,89.31
2023-01-23T09:44:03.492Z,88.47
2023-01-23T09:45:03.333Z,88.57
2023-01-23T09:46:03.320Z,89.10
2023-01-23T09:47:03.290Z,89.21
2023-01-23T09:48:03.449Z,88.26
2023-01-23T09:49:03.239Z,88.47
2023-01-23T09:50:03.238Z,88.89
2023-01-23T09:51:03.232Z,88.68
2023-01-23T09:52:03.198Z,88.96
2023-01-23T09:53:03.179Z,88.64
2023-01-23T09:54:03.156Z,88.85
2023-01-23T09:55:03.160Z,88.96
2023-01-23T09:56:03.140Z,88.54
2023-01-23T09:57:03.119Z,88.32
2023-01-23T09:58:03.340Z,88.64
2023-01-23T09:59:03.221Z,88.89
2023-01-23T10:00:03.100Z,88.85
2023-01-23T10:01:03.138Z,88.96
2023-01-23T10:02:03.142Z,88.85
2023-01-23T10:03:03.036Z,88.75
2023-01-23T10:04:03.028Z,88.68
2023-01-23T10:05:03.181Z,88.68
2023-01-23T10:06:03.008Z,89.06
2023-01-23T10:07:02.990Z,88.89
2023-01-23T10:08:02.974Z,89.10
2023-01-23T10:09:02.973Z,89.42
2023-01-23T10:10:02.966Z,89.42
2023-01-23T10:11:02.937Z,89.00
2023-01-23T10:12:02.939Z,88.64
2023-01-23T10:13:02.960Z,88.96
2023-01-23T10:14:02.904Z,89.59
2023-01-23T10:15:09.015Z,89.17
2023-01-23T10:16:02.876Z,88.71
2023-01-23T10:17:02.898Z,88.29
2023-01-23T10:18:02.845Z,88.39
2023-01-23T10:19:02.851Z,88.07
2023-01-23T10:20:02.825Z,88.29
2023-01-23T10:21:02.823Z,88.14
2023-01-23T10:22:02.804Z,88.14
2023-01-23T10:23:02.782Z,88.04
2023-01-23T10:24:02.782Z,87.72
2023-01-23T10:25:02.766Z,87.76
2023-01-23T10:26:02.755Z,87.55
2023-01-23T10:27:02.730Z,87.87
2023-01-23T10:28:02.923Z,88.39
2023-01-23T10:29:02.710Z,88.39
2023-01-23T10:30:02.699Z,88.39
2023-01-23T10:31:02.960Z,88.49
2023-01-23T10:32:02.695Z,88.71
2023-01-23T10:33:02.654Z,88.49
2023-01-23T10:34:05.076Z,88.92
2023-01-23T10:35:02.631Z,88.81
2023-01-23T10:36:02.619Z,89.02
2023-01-23T10:37:02.602Z,89.02
2023-01-23T10:38:02.586Z,89.34
2023-01-23T10:39:02.569Z,89.23
2023-01-23T10:40:02.560Z,89.34
2023-01-23T10:41:02.769Z,88.92
2023-01-23T10:42:03.100Z,89.12
2023-01-23T10:43:02.524Z,89.44
2023-01-23T10:44:02.514Z,89.19
2023-01-23T10:45:02.491Z,89.09
2023-01-23T10:46:02.533Z,88.77
2023-01-23T10:47:02.495Z,87.72
2023-01-23T10:48:06.274Z,87.93
2023-01-23T10:49:02.462Z,88.46
2023-01-23T10:50:02.425Z,88.67
2023-01-23T10:51:02.532Z,88.87
2023-01-23T10:52:02.408Z,88.77
2023-01-23T10:53:02.386Z,88.56
2023-01-23T10:54:06.165Z,87.93
2023-01-23T10:55:02.365Z,88.14
2023-01-23T10:56:02.356Z,88.87
2023-01-23T10:57:02.356Z,88.56
2023-01-23T10:58:02.323Z,88.46
2023-01-23T10:59:02.303Z,88.31
2023-01-23T11:00:02.309Z,88.24
2023-01-23T11:01:02.430Z,88.24
2023-01-23T11:02:02.363Z,88.24
2023-01-23T11:03:02.479Z,87.83
2023-01-23T11:04:02.254Z,88.14
2023-01-23T11:05:02.251Z,88.87
2023-01-23T11:06:02.276Z,88.52
2023-01-23T11:07:02.209Z,88.62
2023-01-23T11:08:02.597Z,88.62
2023-01-23T11:09:02.175Z,88.42
2023-01-23T11:10:02.170Z,87.99
2023-01-23T11:11:02.189Z,87.68
2023-01-23T11:12:02.207Z,87.68
2023-01-23T11:13:02.158Z,88.31
2023-01-23T11:14:02.140Z,88.42
2023-01-23T11:15:02.116Z,88.17
2023-01-23T11:16:02.146Z,87.54
2023-01-23T11:17:02.081Z,87.33
2023-01-23T11:18:02.069Z,87.54
2023-01-23T11:19:02.247Z,86.80
2023-01-23T11:20:02.068Z,86.70
2023-01-23T11:21:02.035Z,86.70
2023-01-23T11:22:02.015Z,87.12
2023-01-23T11:23:02.002Z,87.74
2023-01-23T11:24:03.929Z,88.17
2023-01-23T11:25:01.976Z,88.27
2023-01-23T11:26:01.979Z,87.85
2023-01-23T11:27:01.957Z,87.64
2023-01-23T11:28:01.932Z,87.43
2023-01-23T11:29:01.919Z,87.23
2023-01-23T11:30:02.026Z,87.43
2023-01-23T11:31:13.250Z,87.12
2023-01-23T11:32:03.059Z,87.12
2023-01-23T11:33:01.891Z,87.54
2023-01-23T11:34:01.851Z,87.79
2023-01-23T11:35:01.959Z,88.17
2023-01-23T11:36:07.829Z,88.37
2023-01-23T11:37:01.812Z,87.85
2023-01-23T11:38:01.799Z,87.74
2023-01-23T11:39:01.791Z,87.64
2023-01-23T11:40:01.787Z,87.79
2023-01-23T11:41:01.771Z,88.17
2023-01-23T11:42:07.759Z,88.37
2023-01-23T11:43:01.742Z,88.17
2023-01-23T11:44:01.735Z,88.06
2023-01-23T11:45:01.747Z,88.06
2023-01-23T11:46:01.779Z,88.06
2023-01-23T11:47:01.685Z,87.74
2023-01-23T11:48:01.724Z,87.74
2023-01-23T11:49:01.664Z,87.74
2023-01-23T11:50:01.654Z,88.17
2023-01-23T11:51:01.927Z,87.85
2023-01-23T11:52:01.619Z,88.06
2023-01-23T11:53:01.639Z,88.27
2023-01-23T11:54:01.643Z,88.27
2023-01-23T11:55:01.596Z,88.59
2023-01-23T11:56:01.584Z,88.48
2023-01-23T11:57:01.582Z,87.96
2023-01-23T11:58:01.551Z,88.27
2023-01-23T11:59:01.534Z,88.48
2023-01-23T12:00:02.178Z,88.48
2023-01-23T12:01:01.518Z,88.17
2023-01-23T12:02:03.864Z,88.27
2023-01-23T12:03:01.626Z,88.69
2023-01-23T12:04:07.519Z,88.27
2023-01-23T12:05:01.858Z,88.23
2023-01-23T12:07:02.645Z,88.34
2023-01-23T12:08:01.431Z,88.34
2023-01-23T12:09:01.394Z,88.02
2023-01-23T12:10:01.401Z,87.98
2023-01-23T12:11:01.378Z,87.98
2023-01-23T12:12:01.447Z,87.88
2023-01-23T12:13:01.352Z,87.35
2023-01-23T12:14:01.340Z,87.46
2023-01-23T12:15:01.334Z,87.52
2023-01-23T12:16:01.395Z,86.69
2023-01-23T12:17:01.305Z,86.47
2023-01-23T12:19:01.270Z,86.47
2023-01-23T12:20:01.272Z,86.06
2023-01-23T12:21:01.251Z,86.27
2023-01-23T12:22:01.242Z,86.27
2023-01-23T12:23:01.340Z,85.64
2023-01-23T12:24:01.203Z,85.91
2023-01-23T12:25:01.188Z,86.06
2023-01-23T12:26:07.198Z,85.74
2023-01-23T12:27:01.371Z,86.23
2023-01-23T12:28:01.155Z,86.33
2023-01-23T12:29:01.145Z,86.54
2023-01-23T12:30:01.337Z,86.23
2023-01-23T12:31:01.181Z,85.91
2023-01-23T12:32:01.253Z,85.18
2023-01-23T12:33:01.094Z,85.71
2023-01-23T12:34:01.071Z,85.77
2023-01-23T12:35:01.062Z,85.77
2023-01-23T12:36:01.043Z,85.67
2023-01-23T12:37:16.605Z,85.98
2023-01-23T12:38:02.061Z,85.81
2023-01-23T12:39:01.265Z,85.71
2023-01-23T12:40:01.003Z,86.08
2023-01-23T12:41:00.986Z,85.98
2023-01-23T12:42:00.979Z,85.46
2023-01-23T12:43:01.769Z,85.77
2023-01-23T12:44:00.939Z,85.88
2023-01-23T12:45:00.945Z,85.98
2023-01-23T12:46:00.917Z,85.67
2023-01-23T12:47:01.172Z,85.56
2023-01-23T12:48:01.765Z,85.67
2023-01-23T12:49:00.888Z,86.08
2023-01-23T12:50:00.903Z,85.39
2023-01-23T12:51:00.921Z,86.13
2023-01-23T12:52:00.837Z,86.79
2023-01-23T12:53:00.830Z,87.42
2023-01-23T12:54:00.825Z,87.10
2023-01-23T12:55:00.988Z,86.79
2023-01-23T12:56:00.984Z,87.46